sensor_id;sensor_type;location;lat;lon;timestamp;P1;durP1;ratioP1;P2;durP2;ratioP2
61112;SDS011;47184;57.998;56.184;2023-04-23T00:01:29;66.70;;;19.90;;
61112;SDS011;47184;57.998;56.184;2023-04-23T00:03:59;57.22;;;18.17;;
61112;SDS011;47184;57.998;56.184;2023-04-23T00:06:30;70.80;;;20.90;;
61112;SDS011;47184;57.998;56.184;2023-04-23T00:08:58;62.55;;;21.83;;
61112;SDS011;47184;57.998;56.184;2023-04-23T00:11:26;68.47;;;20.38;;
61112;SDS011;47184;57.998;56.184;2023-04-23T00:13:52;60.97;;;20.50;;
61112;SDS011;47184;57.998;56.184;2023-04-23T00:16:19;58.13;;;19.63;;
61112;SDS011;47184;57.998;56.184;2023-04-23T00:18:45;51.70;;;18.65;;
61112;SDS011;47184;57.998;56.184;2023-04-23T00:21:12;52.00;;;21.42;;
61112;SDS011;47184;57.998;56.184;2023-04-23T00:23:38;66.53;;;21.65;;
61112;SDS011;47184;57.998;56.184;2023-04-23T00:26:04;82.07;;;22.13;;
61112;SDS011;47184;57.998;56.184;2023-04-23T00:28:30;63.60;;;21.27;;
61112;SDS011;47184;57.998;56.184;2023-04-23T00:30:57;52.72;;;21.17;;
61112;SDS011;47184;57.998;56.184;2023-04-23T00:33:23;55.17;;;20.95;;
61112;SDS011;47184;57.998;56.184;2023-04-23T00:35:49;55.67;;;20.17;;
61112;SDS011;47184;57.998;56.184;2023-04-23T00:38:15;44.60;;;20.13;;
61112;SDS011;47184;57.998;56.184;2023-04-23T00:40:41;51.13;;;18.60;;
61112;SDS011;47184;57.998;56.184;2023-04-23T00:43:07;51.70;;;18.80;;
61112;SDS011;47184;57.998;56.184;2023-04-23T00:45:34;54.60;;;20.08;;
61112;SDS011;47184;57.998;56.184;2023-04-23T00:48:01;47.17;;;18.08;;
61112;SDS011;47184;57.998;56.184;2023-04-23T00:50:28;43.33;;;17.63;;
61112;SDS011;47184;57.998;56.184;2023-04-23T00:52:54;56.58;;;20.33;;
61112;SDS011;47184;57.998;56.184;2023-04-23T00:55:20;56.47;;;20.75;;
61112;SDS011;47184;57.998;56.184;2023-04-23T00:57:46;51.35;;;18.95;;
61112;SDS011;47184;57.998;56.184;2023-04-23T01:00:13;43.50;;;17.50;;
61112;SDS011;47184;57.998;56.184;2023-04-23T01:02:40;52.13;;;19.10;;
61112;SDS011;47184;57.998;56.184;2023-04-23T01:05:08;37.78;;;15.30;;
61112;SDS011;47184;57.998;56.184;2023-04-23T01:07:36;45.72;;;14.63;;
61112;SDS011;47184;57.998;56.184;2023-04-23T01:10:02;51.05;;;14.27;;
61112;SDS011;47184;57.998;56.184;2023-04-23T01:12:30;38.47;;;14.30;;
61112;SDS011;47184;57.998;56.184;2023-04-23T01:14:56;54.95;;;17.05;;
61112;SDS011;47184;57.998;56.184;2023-04-23T01:17:23;78.75;;;19.48;;
61112;SDS011;47184;57.998;56.184;2023-04-23T01:19:52;62.22;;;17.77;;
61112;SDS011;47184;57.998;56.184;2023-04-23T01:22:18;52.45;;;17.02;;
61112;SDS011;47184;57.998;56.184;2023-04-23T01:24:46;42.47;;;15.70;;
61112;SDS011;47184;57.998;56.184;2023-04-23T01:27:13;38.53;;;11.68;;
61112;SDS011;47184;57.998;56.184;2023-04-23T01:29:40;41.25;;;14.27;;
61112;SDS011;47184;57.998;56.184;2023-04-23T01:32:07;51.17;;;14.23;;
61112;SDS011;47184;57.998;56.184;2023-04-23T01:34:37;29.25;;;11.70;;
61112;SDS011;47184;57.998;56.184;2023-04-23T01:37:04;39.85;;;14.60;;
61112;SDS011;47184;57.998;56.184;2023-04-23T01:39:30;38.00;;;14.93;;
61112;SDS011;47184;57.998;56.184;2023-04-23T01:41:56;36.17;;;16.13;;
61112;SDS011;47184;57.998;56.184;2023-04-23T01:44:22;53.28;;;16.27;;
61112;SDS011;47184;57.998;56.184;2023-04-23T01:46:49;32.10;;;14.75;;
61112;SDS011;47184;57.998;56.184;2023-04-23T01:49:15;43.38;;;13.98;;
61112;SDS011;47184;57.998;56.184;2023-04-23T01:51:41;41.83;;;14.45;;
61112;SDS011;47184;57.998;56.184;2023-04-23T01:54:08;39.72;;;13.48;;
61112;SDS011;47184;57.998;56.184;2023-04-23T01:56:34;34.53;;;12.50;;
61112;SDS011;47184;57.998;56.184;2023-04-23T01:59:00;29.52;;;11.70;;
61112;SDS011;47184;57.998;56.184;2023-04-23T02:01:40;34.50;;;13.15;;
61112;SDS011;47184;57.998;56.184;2023-04-23T02:04:07;26.10;;;11.52;;
61112;SDS011;47184;57.998;56.184;2023-04-23T02:06:34;27.13;;;10.02;;
61112;SDS011;47184;57.998;56.184;2023-04-23T02:09:00;25.70;;;11.00;;
61112;SDS011;47184;57.998;56.184;2023-04-23T02:11:26;25.92;;;10.25;;
61112;SDS011;47184;57.998;56.184;2023-04-23T02:13:53;21.08;;;9.95;;
61112;SDS011;47184;57.998;56.184;2023-04-23T02:16:19;24.45;;;11.43;;
61112;SDS011;47184;57.998;56.184;2023-04-23T02:18:45;46.75;;;11.95;;
61112;SDS011;47184;57.998;56.184;2023-04-23T02:21:11;40.78;;;10.35;;
61112;SDS011;47184;57.998;56.184;2023-04-23T02:23:37;28.73;;;10.63;;
61112;SDS011;47184;57.998;56.184;2023-04-23T02:26:04;26.25;;;10.82;;
61112;SDS011;47184;57.998;56.184;2023-04-23T02:28:30;31.58;;;10.95;;
61112;SDS011;47184;57.998;56.184;2023-04-23T02:30:56;30.73;;;10.27;;
61112;SDS011;47184;57.998;56.184;2023-04-23T02:33:22;27.10;;;10.55;;
61112;SDS011;47184;57.998;56.184;2023-04-23T02:35:50;24.67;;;10.10;;
61112;SDS011;47184;57.998;56.184;2023-04-23T02:38:16;22.42;;;9.88;;
61112;SDS011;47184;57.998;56.184;2023-04-23T02:40:42;22.70;;;10.18;;
61112;SDS011;47184;57.998;56.184;2023-04-23T02:43:08;31.02;;;10.60;;
61112;SDS011;47184;57.998;56.184;2023-04-23T02:45:34;23.80;;;10.60;;
61112;SDS011;47184;57.998;56.184;2023-04-23T02:48:01;27.98;;;10.23;;
61112;SDS011;47184;57.998;56.184;2023-04-23T02:50:27;27.58;;;10.35;;
61112;SDS011;47184;57.998;56.184;2023-04-23T02:52:53;24.83;;;9.30;;
61112;SDS011;47184;57.998;56.184;2023-04-23T02:55:19;25.27;;;8.43;;
61112;SDS011;47184;57.998;56.184;2023-04-23T02:57:46;32.90;;;9.63;;
61112;SDS011;47184;57.998;56.184;2023-04-23T03:00:12;21.67;;;8.85;;
61112;SDS011;47184;57.998;56.184;2023-04-23T03:02:42;17.33;;;8.43;;
61112;SDS011;47184;57.998;56.184;2023-04-23T03:05:08;26.67;;;10.07;;
61112;SDS011;47184;57.998;56.184;2023-04-23T03:07:35;18.73;;;8.65;;
61112;SDS011;47184;57.998;56.184;2023-04-23T03:10:01;20.77;;;8.55;;
61112;SDS011;47184;57.998;56.184;2023-04-23T03:12:30;27.58;;;8.95;;
61112;SDS011;47184;57.998;56.184;2023-04-23T03:14:56;27.45;;;9.68;;
61112;SDS011;47184;57.998;56.184;2023-04-23T03:17:24;30.38;;;10.73;;
61112;SDS011;47184;57.998;56.184;2023-04-23T03:19:50;31.13;;;9.02;;
61112;SDS011;47184;57.998;56.184;2023-04-23T03:22:18;31.85;;;8.55;;
61112;SDS011;47184;57.998;56.184;2023-04-23T03:24:45;33.30;;;10.73;;
61112;SDS011;47184;57.998;56.184;2023-04-23T03:27:11;63.25;;;11.40;;
61112;SDS011;47184;57.998;56.184;2023-04-23T03:29:38;36.00;;;11.07;;
61112;SDS011;47184;57.998;56.184;2023-04-23T03:32:04;30.23;;;9.95;;
61112;SDS011;47184;57.998;56.184;2023-04-23T03:34:31;32.33;;;10.15;;
61112;SDS011;47184;57.998;56.184;2023-04-23T03:36:57;28.75;;;10.45;;
61112;SDS011;47184;57.998;56.184;2023-04-23T03:39:24;33.05;;;10.55;;
61112;SDS011;47184;57.998;56.184;2023-04-23T03:41:52;17.27;;;7.07;;
61112;SDS011;47184;57.998;56.184;2023-04-23T03:44:23;27.25;;;9.38;;
61112;SDS011;47184;57.998;56.184;2023-04-23T03:46:49;26.30;;;10.18;;
61112;SDS011;47184;57.998;56.184;2023-04-23T03:49:17;20.33;;;9.65;;
61112;SDS011;47184;57.998;56.184;2023-04-23T03:51:43;33.47;;;10.13;;
61112;SDS011;47184;57.998;56.184;2023-04-23T03:54:10;31.70;;;11.05;;
61112;SDS011;47184;57.998;56.184;2023-04-23T03:56:42;37.10;;;9.93;;
61112;SDS011;47184;57.998;56.184;2023-04-23T03:59:23;32.63;;;9.68;;
61112;SDS011;47184;57.998;56.184;2023-04-23T04:01:52;34.97;;;9.95;;
61112;SDS011;47184;57.998;56.184;2023-04-23T04:04:18;23.45;;;9.65;;
61112;SDS011;47184;57.998;56.184;2023-04-23T04:06:44;30.65;;;10.15;;
61112;SDS011;47184;57.998;56.184;2023-04-23T04:09:10;31.05;;;9.90;;
61112;SDS011;47184;57.998;56.184;2023-04-23T04:11:37;27.85;;;8.52;;
61112;SDS011;47184;57.998;56.184;2023-04-23T04:14:03;23.88;;;8.30;;
61112;SDS011;47184;57.998;56.184;2023-04-23T04:16:29;29.08;;;8.23;;
61112;SDS011;47184;57.998;56.184;2023-04-23T04:18:55;19.92;;;6.70;;
61112;SDS011;47184;57.998;56.184;2023-04-23T04:21:21;14.88;;;5.57;;
61112;SDS011;47184;57.998;56.184;2023-04-23T04:23:47;37.15;;;8.43;;
61112;SDS011;47184;57.998;56.184;2023-04-23T04:26:13;27.30;;;7.78;;
61112;SDS011;47184;57.998;56.184;2023-04-23T04:28:40;24.42;;;8.65;;
61112;SDS011;47184;57.998;56.184;2023-04-23T04:31:06;32.63;;;8.40;;
61112;SDS011;47184;57.998;56.184;2023-04-23T04:33:33;23.67;;;7.80;;
61112;SDS011;47184;57.998;56.184;2023-04-23T04:36:00;25.05;;;8.80;;
61112;SDS011;47184;57.998;56.184;2023-04-23T04:38:27;30.10;;;8.10;;
61112;SDS011;47184;57.998;56.184;2023-04-23T04:40:54;30.42;;;7.88;;
61112;SDS011;47184;57.998;56.184;2023-04-23T04:43:24;20.73;;;7.57;;
61112;SDS011;47184;57.998;56.184;2023-04-23T04:45:51;23.17;;;7.18;;
61112;SDS011;47184;57.998;56.184;2023-04-23T04:48:18;27.50;;;6.85;;
61112;SDS011;47184;57.998;56.184;2023-04-23T04:50:45;39.78;;;7.95;;
61112;SDS011;47184;57.998;56.184;2023-04-23T04:53:11;21.30;;;6.47;;
61112;SDS011;47184;57.998;56.184;2023-04-23T04:55:37;16.50;;;6.72;;
61112;SDS011;47184;57.998;56.184;2023-04-23T04:58:03;23.85;;;6.50;;
61112;SDS011;47184;57.998;56.184;2023-04-23T05:00:30;22.02;;;7.03;;
61112;SDS011;47184;57.998;56.184;2023-04-23T05:02:57;30.83;;;5.97;;
61112;SDS011;47184;57.998;56.184;2023-04-23T05:05:24;16.73;;;5.80;;
61112;SDS011;47184;57.998;56.184;2023-04-23T05:07:51;20.52;;;5.95;;
61112;SDS011;47184;57.998;56.184;2023-04-23T05:10:19;30.40;;;6.07;;
61112;SDS011;47184;57.998;56.184;2023-04-23T05:12:46;15.25;;;5.57;;
61112;SDS011;47184;57.998;56.184;2023-04-23T05:15:12;16.35;;;6.05;;
61112;SDS011;47184;57.998;56.184;2023-04-23T05:17:39;26.23;;;6.35;;
61112;SDS011;47184;57.998;56.184;2023-04-23T05:20:06;28.65;;;6.97;;
61112;SDS011;47184;57.998;56.184;2023-04-23T05:22:39;30.58;;;6.63;;
61112;SDS011;47184;57.998;56.184;2023-04-23T05:25:06;24.15;;;7.38;;
61112;SDS011;47184;57.998;56.184;2023-04-23T05:27:34;19.10;;;6.45;;
61112;SDS011;47184;57.998;56.184;2023-04-23T05:30:01;26.92;;;5.90;;
61112;SDS011;47184;57.998;56.184;2023-04-23T05:32:32;23.40;;;6.78;;
61112;SDS011;47184;57.998;56.184;2023-04-23T05:34:59;15.15;;;5.75;;
61112;SDS011;47184;57.998;56.184;2023-04-23T05:37:33;13.05;;;4.13;;
61112;SDS011;47184;57.998;56.184;2023-04-23T05:39:59;17.73;;;5.60;;
61112;SDS011;47184;57.998;56.184;2023-04-23T05:42:33;33.90;;;6.07;;
61112;SDS011;47184;57.998;56.184;2023-04-23T05:45:02;21.67;;;5.68;;
61112;SDS011;47184;57.998;56.184;2023-04-23T05:47:32;16.90;;;5.82;;
61112;SDS011;47184;57.998;56.184;2023-04-23T05:50:00;14.02;;;5.90;;
61112;SDS011;47184;57.998;56.184;2023-04-23T05:52:33;12.80;;;5.07;;
61112;SDS011;47184;57.998;56.184;2023-04-23T05:55:03;13.32;;;4.65;;
61112;SDS011;47184;57.998;56.184;2023-04-23T05:57:32;23.40;;;5.10;;
61112;SDS011;47184;57.998;56.184;2023-04-23T05:59:58;12.43;;;4.60;;
61112;SDS011;47184;57.998;56.184;2023-04-23T06:02:24;12.95;;;4.90;;
61112;SDS011;47184;57.998;56.184;2023-04-23T06:04:51;8.00;;;1.40;;
61112;SDS011;47184;57.998;56.184;2023-04-23T06:07:17;15.18;;;2.90;;
61112;SDS011;47184;57.998;56.184;2023-04-23T06:09:43;21.20;;;3.67;;
61112;SDS011;47184;57.998;56.184;2023-04-23T06:12:09;8.88;;;2.67;;
61112;SDS011;47184;57.998;56.184;2023-04-23T06:14:36;7.13;;;2.63;;
61112;SDS011;47184;57.998;56.184;2023-04-23T06:17:02;12.95;;;3.00;;
61112;SDS011;47184;57.998;56.184;2023-04-23T06:19:28;11.10;;;3.47;;
61112;SDS011;47184;57.998;56.184;2023-04-23T06:21:54;15.88;;;3.55;;
61112;SDS011;47184;57.998;56.184;2023-04-23T06:24:20;15.52;;;3.35;;
61112;SDS011;47184;57.998;56.184;2023-04-23T06:26:46;10.18;;;2.58;;
61112;SDS011;47184;57.998;56.184;2023-04-23T06:29:17;8.50;;;3.28;;
61112;SDS011;47184;57.998;56.184;2023-04-23T06:31:53;18.70;;;4.53;;
61112;SDS011;47184;57.998;56.184;2023-04-23T06:34:20;16.58;;;3.75;;
61112;SDS011;47184;57.998;56.184;2023-04-23T06:36:46;29.27;;;3.50;;
61112;SDS011;47184;57.998;56.184;2023-04-23T06:39:12;16.45;;;3.05;;
61112;SDS011;47184;57.998;56.184;2023-04-23T06:41:38;13.57;;;3.50;;
61112;SDS011;47184;57.998;56.184;2023-04-23T06:44:16;5.75;;;2.78;;
61112;SDS011;47184;57.998;56.184;2023-04-23T06:46:51;14.70;;;2.83;;
61112;SDS011;47184;57.998;56.184;2023-04-23T06:49:17;12.75;;;2.67;;
61112;SDS011;47184;57.998;56.184;2023-04-23T06:51:44;7.40;;;1.80;;
61112;SDS011;47184;57.998;56.184;2023-04-23T06:54:10;4.13;;;2.22;;
61112;SDS011;47184;57.998;56.184;2023-04-23T06:56:36;10.52;;;2.47;;
61112;SDS011;47184;57.998;56.184;2023-04-23T06:59:02;10.85;;;2.30;;
61112;SDS011;47184;57.998;56.184;2023-04-23T07:01:30;15.25;;;2.10;;
61112;SDS011;47184;57.998;56.184;2023-04-23T07:03:56;10.70;;;1.95;;
61112;SDS011;47184;57.998;56.184;2023-04-23T07:06:22;9.18;;;1.77;;
61112;SDS011;47184;57.998;56.184;2023-04-23T07:08:48;17.52;;;2.28;;
61112;SDS011;47184;57.998;56.184;2023-04-23T07:11:14;10.93;;;1.55;;
61112;SDS011;47184;57.998;56.184;2023-04-23T07:13:40;15.63;;;2.33;;
61112;SDS011;47184;57.998;56.184;2023-04-23T07:16:07;5.45;;;1.75;;
61112;SDS011;47184;57.998;56.184;2023-04-23T07:18:33;2.95;;;1.23;;
61112;SDS011;47184;57.998;56.184;2023-04-23T07:20:59;7.60;;;1.75;;
61112;SDS011;47184;57.998;56.184;2023-04-23T07:23:25;8.43;;;1.60;;
61112;SDS011;47184;57.998;56.184;2023-04-23T07:25:51;4.38;;;1.80;;
61112;SDS011;47184;57.998;56.184;2023-04-23T07:28:17;23.48;;;2.65;;
61112;SDS011;47184;57.998;56.184;2023-04-23T07:30:43;17.63;;;2.00;;
61112;SDS011;47184;57.998;56.184;2023-04-23T07:33:10;17.90;;;2.53;;
61112;SDS011;47184;57.998;56.184;2023-04-23T07:35:36;6.28;;;2.03;;
61112;SDS011;47184;57.998;56.184;2023-04-23T07:38:02;2.90;;;1.27;;
61112;SDS011;47184;57.998;56.184;2023-04-23T07:40:28;6.30;;;1.55;;
61112;SDS011;47184;57.998;56.184;2023-04-23T07:42:54;7.80;;;1.25;;
61112;SDS011;47184;57.998;56.184;2023-04-23T07:45:23;1.38;;;0.82;;
61112;SDS011;47184;57.998;56.184;2023-04-23T07:47:49;13.82;;;1.50;;
61112;SDS011;47184;57.998;56.184;2023-04-23T07:50:15;3.33;;;0.63;;
61112;SDS011;47184;57.998;56.184;2023-04-23T07:52:41;1.45;;;0.95;;
61112;SDS011;47184;57.998;56.184;2023-04-23T07:55:08;7.45;;;1.52;;
61112;SDS011;47184;57.998;56.184;2023-04-23T07:57:34;4.45;;;1.50;;
61112;SDS011;47184;57.998;56.184;2023-04-23T08:00:00;7.75;;;1.13;;
61112;SDS011;47184;57.998;56.184;2023-04-23T08:02:37;5.57;;;2.08;;
61112;SDS011;47184;57.998;56.184;2023-04-23T08:05:04;1.88;;;0.73;;
61112;SDS011;47184;57.998;56.184;2023-04-23T08:07:31;10.98;;;1.90;;
61112;SDS011;47184;57.998;56.184;2023-04-23T08:09:57;3.13;;;0.88;;
61112;SDS011;47184;57.998;56.184;2023-04-23T08:12:30;7.90;;;1.60;;
61112;SDS011;47184;57.998;56.184;2023-04-23T08:14:59;13.13;;;2.03;;
61112;SDS011;47184;57.998;56.184;2023-04-23T08:17:33;10.32;;;1.75;;
61112;SDS011;47184;57.998;56.184;2023-04-23T08:19:59;19.20;;;2.50;;
61112;SDS011;47184;57.998;56.184;2023-04-23T08:22:25;17.52;;;2.42;;
61112;SDS011;47184;57.998;56.184;2023-04-23T08:24:51;1.88;;;0.90;;
61112;SDS011;47184;57.998;56.184;2023-04-23T08:27:17;1.42;;;0.60;;
61112;SDS011;47184;57.998;56.184;2023-04-23T08:29:43;4.35;;;0.95;;
61112;SDS011;47184;57.998;56.184;2023-04-23T08:32:09;10.68;;;1.52;;
61112;SDS011;47184;57.998;56.184;2023-04-23T08:34:35;2.75;;;0.77;;
61112;SDS011;47184;57.998;56.184;2023-04-23T08:37:01;9.00;;;1.00;;
61112;SDS011;47184;57.998;56.184;2023-04-23T08:39:29;4.35;;;0.68;;
61112;SDS011;47184;57.998;56.184;2023-04-23T08:41:57;1.83;;;0.50;;
61112;SDS011;47184;57.998;56.184;2023-04-23T08:44:32;4.85;;;0.57;;
61112;SDS011;47184;57.998;56.184;2023-04-23T08:47:00;4.22;;;0.50;;
61112;SDS011;47184;57.998;56.184;2023-04-23T08:49:32;2.25;;;0.50;;
61112;SDS011;47184;57.998;56.184;2023-04-23T08:52:03;10.63;;;1.17;;
61112;SDS011;47184;57.998;56.184;2023-04-23T08:54:40;12.30;;;1.23;;
61112;SDS011;47184;57.998;56.184;2023-04-23T08:57:09;6.95;;;0.93;;
61112;SDS011;47184;57.998;56.184;2023-04-23T08:59:36;4.70;;;1.35;;
61112;SDS011;47184;57.998;56.184;2023-04-23T09:02:04;2.47;;;1.17;;
61112;SDS011;47184;57.998;56.184;2023-04-23T09:04:37;10.15;;;2.10;;
61112;SDS011;47184;57.998;56.184;2023-04-23T09:07:04;7.40;;;0.90;;
61112;SDS011;47184;57.998;56.184;2023-04-23T09:09:36;5.05;;;0.80;;
61112;SDS011;47184;57.998;56.184;2023-04-23T09:12:06;8.35;;;1.05;;
61112;SDS011;47184;57.998;56.184;2023-04-23T09:14:33;17.92;;;1.88;;
61112;SDS011;47184;57.998;56.184;2023-04-23T09:17:03;15.30;;;1.17;;
61112;SDS011;47184;57.998;56.184;2023-04-23T09:19:29;4.28;;;1.10;;
61112;SDS011;47184;57.998;56.184;2023-04-23T09:21:56;2.95;;;0.90;;
61112;SDS011;47184;57.998;56.184;2023-04-23T09:24:25;5.30;;;1.00;;
61112;SDS011;47184;57.998;56.184;2023-04-23T09:26:51;2.97;;;0.80;;
61112;SDS011;47184;57.998;56.184;2023-04-23T09:29:18;7.15;;;1.60;;
61112;SDS011;47184;57.998;56.184;2023-04-23T09:31:46;5.22;;;1.20;;
61112;SDS011;47184;57.998;56.184;2023-04-23T09:34:15;6.40;;;1.30;;
61112;SDS011;47184;57.998;56.184;2023-04-23T09:36:45;2.35;;;0.75;;
61112;SDS011;47184;57.998;56.184;2023-04-23T09:39:15;4.63;;;0.60;;
61112;SDS011;47184;57.998;56.184;2023-04-23T09:41:44;1.30;;;0.40;;
61112;SDS011;47184;57.998;56.184;2023-04-23T09:44:17;18.88;;;2.10;;
61112;SDS011;47184;57.998;56.184;2023-04-23T09:46:44;7.10;;;1.35;;
61112;SDS011;47184;57.998;56.184;2023-04-23T09:49:11;3.38;;;1.13;;
61112;SDS011;47184;57.998;56.184;2023-04-23T09:51:38;3.50;;;0.88;;
61112;SDS011;47184;57.998;56.184;2023-04-23T09:54:10;3.05;;;0.65;;
61112;SDS011;47184;57.998;56.184;2023-04-23T09:56:37;14.18;;;0.85;;
61112;SDS011;47184;57.998;56.184;2023-04-23T09:59:23;5.30;;;0.98;;
61112;SDS011;47184;57.998;56.184;2023-04-23T10:01:51;1.80;;;0.70;;
61112;SDS011;47184;57.998;56.184;2023-04-23T10:04:18;3.83;;;0.60;;
61112;SDS011;47184;57.998;56.184;2023-04-23T10:06:47;2.53;;;0.82;;
61112;SDS011;47184;57.998;56.184;2023-04-23T10:09:23;4.45;;;0.95;;
61112;SDS011;47184;57.998;56.184;2023-04-23T10:11:51;6.82;;;1.35;;
61112;SDS011;47184;57.998;56.184;2023-04-23T10:14:21;5.97;;;1.30;;
61112;SDS011;47184;57.998;56.184;2023-04-23T10:16:52;8.30;;;0.75;;
61112;SDS011;47184;57.998;56.184;2023-04-23T10:19:30;20.23;;;1.10;;
61112;SDS011;47184;57.998;56.184;2023-04-23T10:21:58;5.15;;;1.00;;
61112;SDS011;47184;57.998;56.184;2023-04-23T10:24:31;8.43;;;0.90;;
61112;SDS011;47184;57.998;56.184;2023-04-23T10:26:59;1.48;;;0.30;;
61112;SDS011;47184;57.998;56.184;2023-04-23T10:29:28;5.22;;;0.60;;
61112;SDS011;47184;57.998;56.184;2023-04-23T10:31:58;7.13;;;0.70;;
61112;SDS011;47184;57.998;56.184;2023-04-23T10:34:26;1.10;;;0.50;;
61112;SDS011;47184;57.998;56.184;2023-04-23T10:36:54;4.07;;;0.82;;
61112;SDS011;47184;57.998;56.184;2023-04-23T10:39:26;2.40;;;0.60;;
61112;SDS011;47184;57.998;56.184;2023-04-23T10:44:21;6.90;;;1.45;;
61112;SDS011;47184;57.998;56.184;2023-04-23T10:46:54;2.55;;;1.40;;
61112;SDS011;47184;57.998;56.184;2023-04-23T10:49:22;10.70;;;1.35;;
61112;SDS011;47184;57.998;56.184;2023-04-23T10:54:35;6.20;;;0.80;;
61112;SDS011;47184;57.998;56.184;2023-04-23T10:57:02;3.00;;;1.23;;
61112;SDS011;47184;57.998;56.184;2023-04-23T10:59:31;3.90;;;0.88;;
61112;SDS011;47184;57.998;56.184;2023-04-23T11:02:04;3.67;;;0.50;;
61112;SDS011;47184;57.998;56.184;2023-04-23T11:04:32;0.32;;;0.15;;
61112;SDS011;47184;57.998;56.184;2023-04-23T11:12:51;5.20;;;0.75;;
61112;SDS011;47184;57.998;56.184;2023-04-23T11:14:58;9.23;;;0.57;;
61112;SDS011;47184;57.998;56.184;2023-04-23T11:20:20;5.05;;;0.80;;
61112;SDS011;47184;57.998;56.184;2023-04-23T11:22:48;3.80;;;0.43;;
61112;SDS011;47184;57.998;56.184;2023-04-23T11:25:19;4.50;;;0.57;;
61112;SDS011;47184;57.998;56.184;2023-04-23T11:27:47;3.17;;;0.73;;
61112;SDS011;47184;57.998;56.184;2023-04-23T11:30:23;4.35;;;0.30;;
61112;SDS011;47184;57.998;56.184;2023-04-23T11:32:52;4.55;;;0.70;;
61112;SDS011;47184;57.998;56.184;2023-04-23T11:35:20;1.15;;;0.38;;
61112;SDS011;47184;57.998;56.184;2023-04-23T11:37:54;3.75;;;0.47;;
61112;SDS011;47184;57.998;56.184;2023-04-23T11:40:21;3.08;;;0.60;;
61112;SDS011;47184;57.998;56.184;2023-04-23T11:42:48;18.00;;;1.13;;
61112;SDS011;47184;57.998;56.184;2023-04-23T11:45:21;1.63;;;0.40;;
61112;SDS011;47184;57.998;56.184;2023-04-23T11:47:49;4.13;;;0.50;;
61112;SDS011;47184;57.998;56.184;2023-04-23T11:50:27;10.65;;;1.15;;
61112;SDS011;47184;57.998;56.184;2023-04-23T11:53:07;4.68;;;0.80;;
61112;SDS011;47184;57.998;56.184;2023-04-23T11:55:35;2.53;;;1.25;;
61112;SDS011;47184;57.998;56.184;2023-04-23T11:58:02;9.90;;;0.80;;
61112;SDS011;47184;57.998;56.184;2023-04-23T12:00:29;12.55;;;1.15;;
61112;SDS011;47184;57.998;56.184;2023-04-23T12:02:56;3.60;;;1.00;;
61112;SDS011;47184;57.998;56.184;2023-04-23T12:05:27;3.83;;;1.20;;
61112;SDS011;47184;57.998;56.184;2023-04-23T12:08:07;20.50;;;7.75;;
61112;SDS011;47184;57.998;56.184;2023-04-23T12:10:42;5.65;;;1.77;;
61112;SDS011;47184;57.998;56.184;2023-04-23T12:13:17;1.60;;;0.93;;
61112;SDS011;47184;57.998;56.184;2023-04-23T12:15:52;6.03;;;1.48;;
61112;SDS011;47184;57.998;56.184;2023-04-23T12:18:29;12.55;;;1.60;;
61112;SDS011;47184;57.998;56.184;2023-04-23T12:23:40;9.23;;;1.90;;
61112;SDS011;47184;57.998;56.184;2023-04-23T12:26:13;8.77;;;1.30;;
61112;SDS011;47184;57.998;56.184;2023-04-23T12:31:27;5.97;;;1.30;;
61112;SDS011;47184;57.998;56.184;2023-04-23T12:34:07;4.93;;;1.20;;
61112;SDS011;47184;57.998;56.184;2023-04-23T12:36:37;6.25;;;0.80;;
61112;SDS011;47184;57.998;56.184;2023-04-23T12:44:32;16.27;;;3.20;;
61112;SDS011;47184;57.998;56.184;2023-04-23T12:47:01;4.40;;;1.83;;
61112;SDS011;47184;57.998;56.184;2023-04-23T12:49:32;3.60;;;0.93;;
61112;SDS011;47184;57.998;56.184;2023-04-23T12:52:00;1.55;;;0.50;;
61112;SDS011;47184;57.998;56.184;2023-04-23T12:54:31;3.75;;;0.80;;
61112;SDS011;47184;57.998;56.184;2023-04-23T12:56:58;3.22;;;1.30;;
61112;SDS011;47184;57.998;56.184;2023-04-23T12:59:27;4.60;;;1.20;;
61112;SDS011;47184;57.998;56.184;2023-04-23T13:01:55;0.73;;;0.20;;
61112;SDS011;47184;57.998;56.184;2023-04-23T13:04:21;2.08;;;0.70;;
61112;SDS011;47184;57.998;56.184;2023-04-23T13:06:47;1.80;;;0.90;;
61112;SDS011;47184;57.998;56.184;2023-04-23T13:09:14;4.72;;;0.70;;
61112;SDS011;47184;57.998;56.184;2023-04-23T13:11:40;2.20;;;0.50;;
61112;SDS011;47184;57.998;56.184;2023-04-23T13:14:06;5.05;;;0.73;;
61112;SDS011;47184;57.998;56.184;2023-04-23T13:16:33;7.50;;;1.30;;
61112;SDS011;47184;57.998;56.184;2023-04-23T13:19:01;3.40;;;0.90;;
61112;SDS011;47184;57.998;56.184;2023-04-23T13:21:27;4.90;;;1.20;;
61112;SDS011;47184;57.998;56.184;2023-04-23T13:23:55;2.00;;;0.50;;
61112;SDS011;47184;57.998;56.184;2023-04-23T13:26:21;7.65;;;1.13;;
61112;SDS011;47184;57.998;56.184;2023-04-23T13:28:47;2.08;;;0.60;;
61112;SDS011;47184;57.998;56.184;2023-04-23T13:31:13;1.23;;;0.73;;
61112;SDS011;47184;57.998;56.184;2023-04-23T13:33:40;32.75;;;3.72;;
61112;SDS011;47184;57.998;56.184;2023-04-23T13:36:07;9.30;;;1.27;;
61112;SDS011;47184;57.998;56.184;2023-04-23T13:38:33;8.93;;;1.10;;
61112;SDS011;47184;57.998;56.184;2023-04-23T13:41:00;5.22;;;2.83;;
61112;SDS011;47184;57.998;56.184;2023-04-23T13:43:26;6.22;;;1.50;;
61112;SDS011;47184;57.998;56.184;2023-04-23T13:45:52;5.75;;;1.63;;
61112;SDS011;47184;57.998;56.184;2023-04-23T13:48:19;13.60;;;1.38;;
61112;SDS011;47184;57.998;56.184;2023-04-23T13:50:45;1.67;;;0.80;;
61112;SDS011;47184;57.998;56.184;2023-04-23T13:53:11;23.95;;;2.13;;
61112;SDS011;47184;57.998;56.184;2023-04-23T13:55:38;3.10;;;1.08;;
61112;SDS011;47184;57.998;56.184;2023-04-23T13:58:05;13.85;;;1.42;;
61112;SDS011;47184;57.998;56.184;2023-04-23T14:00:32;15.68;;;1.25;;
61112;SDS011;47184;57.998;56.184;2023-04-23T14:02:58;2.55;;;1.02;;
61112;SDS011;47184;57.998;56.184;2023-04-23T14:05:24;18.15;;;2.65;;
61112;SDS011;47184;57.998;56.184;2023-04-23T14:07:50;3.40;;;0.80;;
61112;SDS011;47184;57.998;56.184;2023-04-23T14:10:17;10.45;;;2.08;;
61112;SDS011;47184;57.998;56.184;2023-04-23T14:12:43;12.70;;;2.83;;
61112;SDS011;47184;57.998;56.184;2023-04-23T14:15:11;11.88;;;1.52;;
61112;SDS011;47184;57.998;56.184;2023-04-23T14:17:37;7.57;;;1.70;;
61112;SDS011;47184;57.998;56.184;2023-04-23T14:20:05;19.10;;;1.83;;
61112;SDS011;47184;57.998;56.184;2023-04-23T14:22:32;17.60;;;1.73;;
61112;SDS011;47184;57.998;56.184;2023-04-23T14:25:08;10.07;;;1.88;;
61112;SDS011;47184;57.998;56.184;2023-04-23T14:27:40;6.22;;;2.17;;
61112;SDS011;47184;57.998;56.184;2023-04-23T14:30:14;7.75;;;2.10;;
61112;SDS011;47184;57.998;56.184;2023-04-23T14:32:43;14.75;;;2.10;;
61112;SDS011;47184;57.998;56.184;2023-04-23T14:35:11;16.88;;;2.72;;
61112;SDS011;47184;57.998;56.184;2023-04-23T14:37:38;3.15;;;1.13;;
61112;SDS011;47184;57.998;56.184;2023-04-23T14:40:08;12.88;;;1.63;;
61112;SDS011;47184;57.998;56.184;2023-04-23T14:42:37;30.23;;;4.07;;
61112;SDS011;47184;57.998;56.184;2023-04-23T14:45:04;17.45;;;2.33;;
61112;SDS011;47184;57.998;56.184;2023-04-23T14:47:31;7.15;;;1.83;;
61112;SDS011;47184;57.998;56.184;2023-04-23T14:49:57;1.27;;;0.60;;
61112;SDS011;47184;57.998;56.184;2023-04-23T14:52:25;5.45;;;0.93;;